Rayne, Louisiana
Current Conditions -  °F | °C
As of 8:53 AM on Saturday 20 Dec 2014 (Local Time) from KLFT Reporting Station
Overcast Overcast  
Wind Chill: 45°   Ceiling: 300
Heat Index: 49°   Visibility: 8mi
Dew Point: 47°   Wind: 10mph
Humidity: 93%   Direction: 30°NNE
Pressure: 30.17"   Gusts: NA
Location:  30.24°N, 92.27°W
Report Text: KLFT 201453Z 03009KT 8SM OVC003 09/08 A3017 RMK AO2 SLP216 T00940083 51014
Loading
Personal Weather Stations






























Interactive Weather Map New forecast layout! Learn more

10-Day Weather Forecast

Advertisements
Track Severe Weather on mobile